Time;durP1;ratioP1;P1;durP2;ratioP2;P2;SDS_P1;SDS_P2;PMS_P1;PMS_P2;Temp;Humidity;BMP_temperature;BMP_pressure;BME280_temperature;BME280_humidity;BME280_pressure;Samples;Min_cycle;Max_cycle;Signal;HPM_P1;HPM_P2
2022/09/29 00:00:52;;;;;;;13.20;10.70;;;;;;;9.65;78.77;98788.45;105848;1275;22721;-81
2022/09/29 00:03:20;;;;;;;12.10;10.80;;;;;;;9.57;79.55;98790.79;105429;1281;23933;-82
2022/09/29 00:05:49;;;;;;;11.80;9.80;;;;;;;9.56;79.60;98795.23;105485;1281;24034;-82
2022/09/29 00:08:17;;;;;;;10.30;9.20;;;;;;;9.48;79.46;98795.98;105322;1281;22662;-81
2022/09/29 00:10:45;;;;;;;10.30;8.10;;;;;;;9.43;79.95;98796.83;105291;1284;25254;-79
2022/09/29 00:13:13;;;;;;;10.80;9.20;;;;;;;9.45;79.95;98790.65;105370;1281;22665;-80
2022/09/29 00:15:41;;;;;;;10.10;8.00;;;;;;;9.45;79.99;98789.41;105501;1281;22526;-85
2022/09/29 00:18:09;;;;;;;9.40;8.20;;;;;;;9.43;79.97;98791.91;105001;1285;25293;-82
2022/09/29 00:20:40;;;;;;;9.50;7.30;;;;;;;9.37;80.00;98791.55;105106;1283;22487;-80
2022/09/29 00:23:07;;;;;;;7.80;7.00;;;;;;;9.31;80.31;98786.83;105621;1280;22802;-84
2022/09/29 00:25:34;;;;;;;8.20;7.30;;;;;;;9.35;80.34;98787.23;105180;1280;23239;-81
2022/09/29 00:28:01;;;;;;;8.70;7.20;;;;;;;9.37;80.30;98789.27;105494;1281;25225;-83
2022/09/29 00:30:28;;;;;;;8.50;7.60;;;;;;;9.37;80.08;98788.92;105460;1281;22559;-83
2022/09/29 00:32:55;;;;;;;8.60;6.50;;;;;;;9.27;80.06;98789.91;105548;1279;22559;-82
2022/09/29 00:35:22;;;;;;;7.50;6.70;;;;;;;9.26;80.58;98791.02;105414;1280;22669;-81
2022/09/29 00:37:49;;;;;;;8.30;6.60;;;;;;;9.27;80.28;98790.80;105585;1278;22706;-79
2022/09/29 00:40:16;;;;;;;7.50;6.80;;;;;;;9.21;80.45;98792.38;105827;1276;25254;-79
2022/09/29 00:42:43;;;;;;;7.40;6.70;;;;;;;9.23;80.69;98792.83;105883;1276;24252;-79
2022/09/29 00:45:13;;;;;;;8.00;7.30;;;;;;;9.18;80.39;98796.70;105824;1276;22531;-81
2022/09/29 00:47:43;;;;;;;8.50;7.00;;;;;;;9.14;80.53;98792.77;105615;1281;22563;-88
2022/09/29 00:53:31;;;;;;;8.20;6.20;;;;;;;9.06;80.31;98800.70;105105;1284;24036;-83
2022/09/29 00:56:30;;;;;;;9.10;7.70;;;;;;;9.00;80.44;98796.50;105121;1284;23932;-81
2022/09/29 00:59:08;;;;;;;7.30;6.50;;;;;;;8.99;80.91;98800.01;105230;1284;24658;-81
2022/09/29 01:01:35;;;;;;;6.90;6.30;;;;;;;8.96;80.77;98806.26;104964;1290;23064;-82
2022/09/29 01:04:10;;;;;;;8.10;7.10;;;;;;;8.91;80.87;98807.98;104982;1291;24279;-82
2022/09/29 01:06:48;;;;;;;7.40;6.70;;;;;;;8.93;80.97;98812.48;105274;1285;25248;-81
2022/09/29 01:09:19;;;;;;;9.00;7.10;;;;;;;8.94;81.02;98815.43;105664;1281;22666;-86
2022/09/29 01:11:46;;;;;;;9.50;7.90;;;;;;;8.98;81.09;98813.41;105662;1282;25302;-81
2022/09/29 01:14:15;;;;;;;8.50;7.50;;;;;;;8.98;81.10;98806.89;105614;1281;25345;-89
2022/09/29 01:16:42;;;;;;;7.90;7.10;;;;;;;9.03;80.84;98809.75;105726;1282;25307;-82
2022/09/29 01:19:22;;;;;;;8.50;7.20;;;;;;;9.00;80.70;98809.30;105893;1278;25582;-87
2022/09/29 01:22:05;;;;;;;9.00;7.30;;;;;;;8.94;80.66;98812.97;106337;1274;25184;-87
2022/09/29 01:25:05;;;;;;;8.10;7.30;;;;;;;8.89;80.94;98817.14;106382;1278;24307;-83
2022/09/29 01:27:57;;;;;;;7.90;7.20;;;;;;;8.84;81.07;98822.55;106520;1274;22531;-85
2022/09/29 01:30:24;;;;;;;7.70;7.00;;;;;;;8.76;81.15;98822.05;106644;1276;25540;-85
2022/09/29 01:33:30;;;;;;;9.30;6.90;;;;;;;8.70;81.19;98820.30;106352;1274;24394;-84
2022/09/29 01:36:11;;;;;;;7.90;6.80;;;;;;;8.62;81.47;98826.65;106042;1274;25309;-78
2022/09/29 01:38:46;;;;;;;8.20;7.40;;;;;;;8.58;81.58;98832.38;106227;1275;22596;-79
2022/09/29 01:41:22;;;;;;;7.60;6.80;;;;;;;8.56;81.61;98835.23;106295;1274;22557;-85
2022/09/29 01:43:55;;;;;;;8.40;7.60;;;;;;;8.56;81.75;98829.42;106308;1276;25299;-84
2022/09/29 01:46:32;;;;;;;8.30;7.40;;;;;;;8.57;81.79;98830.98;106480;1274;25246;-84
2022/09/29 01:49:01;;;;;;;7.70;7.00;;;;;;;8.54;81.75;98839.82;106311;1274;23930;-79
2022/09/29 01:51:39;;;;;;;7.70;7.00;;;;;;;8.47;81.69;98845.95;106320;1274;22701;-80
2022/09/29 01:54:14;;;;;;;7.80;6.80;;;;;;;8.43;81.83;98845.17;106270;1274;24297;-79
2022/09/29 01:56:50;;;;;;;6.70;6.00;;;;;;;8.42;81.95;98840.09;106601;1281;22547;-79
2022/09/29 01:59:21;;;;;;;;;;;;;;;8.41;82.00;98843.79;106414;1281;25904;-85
2022/09/29 02:01:53;;;;;;;7.80;7.00;;;;;;;8.43;82.20;98843.23;106734;1281;22876;-80
2022/09/29 02:04:31;;;;;;;8.70;7.60;;;;;;;8.42;82.43;98843.42;106236;1281;25233;-80
2022/09/29 02:07:07;;;;;;;7.40;6.70;;;;;;;8.43;82.28;98843.05;105938;1281;22491;-80
2022/09/29 02:09:42;;;;;;;8.10;7.30;;;;;;;8.41;82.23;98845.73;106053;1279;24231;-80
2022/09/29 02:12:12;;;;;;;7.40;6.70;;;;;;;8.40;82.23;98848.23;105721;1281;23119;-80
2022/09/29 02:14:45;;;;;;;9.50;7.20;;;;;;;8.37;82.30;98852.48;105271;1284;24338;-81
2022/09/29 02:17:18;;;;;;;7.70;7.00;;;;;;;8.38;82.19;98849.66;105757;1281;22577;-85
2022/09/29 02:19:49;;;;;;;7.50;6.80;;;;;;;8.39;82.11;98852.10;105732;1281;24325;-79
2022/09/29 02:22:17;;;;;;;7.70;6.10;;;;;;;8.41;82.12;98854.52;105603;1284;22557;-81
2022/09/29 02:24:45;;;;;;;7.00;6.30;;;;;;;8.41;81.94;98856.60;105475;1287;25370;-80
2022/09/29 02:27:13;;;;;;;7.50;6.70;;;;;;;8.39;81.67;98859.12;105395;1288;22710;-81
2022/09/29 02:29:41;;;;;;;7.70;6.90;;;;;;;8.37;81.65;98864.43;105230;1288;25656;-82
2022/09/29 02:32:09;;;;;;;7.00;6.30;;;;;;;8.37;81.93;98867.23;105984;1281;24214;-85
2022/09/29 02:34:41;;;;;;;7.70;7.00;;;;;;;8.37;81.65;98864.59;107082;1281;25781;-87
2022/09/29 02:37:20;;;;;;;9.10;7.30;;;;;;;8.38;81.67;98865.83;108009;1281;22518;-87
2022/09/29 02:40:29;;;;;;;8.90;6.80;;;;;;;8.39;81.71;98864.73;108241;1281;22611;-89
2022/09/29 02:42:59;;;;;;;7.80;6.90;;;;;;;8.32;81.82;98870.70;108658;1275;23154;-85
2022/09/29 02:45:44;;;;;;;10.20;6.80;;;;;;;8.31;81.84;98873.34;107479;1274;23233;-85
2022/09/29 02:48:54;;;;;;;8.60;7.60;;;;;;;8.35;81.90;98877.47;107401;1274;24352;-86
2022/09/29 02:51:34;;;;;;;7.80;7.10;;;;;;;8.36;81.83;98889.89;106809;1277;23849;-84
2022/09/29 02:54:46;;;;;;;7.80;6.40;;;;;;;8.36;81.83;98881.14;106611;1274;24068;-85
2022/09/29 02:57:32;;;;;;;7.30;6.60;;;;;;;8.33;81.84;98892.95;106068;1277;25248;-84
2022/09/29 03:00:10;;;;;;;8.00;7.30;;;;;;;8.28;81.62;98897.45;106388;1274;22583;-86
2022/09/29 03:02:39;;;;;;;8.70;7.80;;;;;;;8.27;81.71;98897.46;106223;1278;22691;-83
2022/09/29 03:05:09;;;;;;;8.10;7.30;;;;;;;8.25;81.54;98892.95;106101;1274;25074;-83
2022/09/29 03:07:37;;;;;;;9.80;7.50;;;;;;;8.20;81.61;98891.85;106130;1274;24187;-82
2022/09/29 03:10:06;;;;;;;9.60;7.70;;;;;;;8.16;81.60;98885.42;105956;1278;24260;-83
2022/09/29 03:12:34;;;;;;;8.80;8.00;;;;;;;8.14;81.70;98888.14;106078;1275;22717;-83
2022/09/29 03:15:01;;;;;;;9.00;8.10;;;;;;;8.12;81.72;98890.29;106198;1277;25649;-83
2022/09/29 03:17:27;;;;;;;9.00;8.10;;;;;;;8.10;81.96;98892.43;106191;1274;23711;-81
2022/09/29 03:19:54;;;;;;;8.20;7.20;;;;;;;8.14;82.01;98900.58;106009;1275;22529;-82
2022/09/29 03:22:21;;;;;;;9.20;7.40;;;;;;;8.13;81.65;98901.48;105958;1275;25249;-82
2022/09/29 03:24:48;;;;;;;9.50;8.10;;;;;;;8.16;81.90;98908.05;106060;1275;22531;-82
2022/09/29 03:27:15;;;;;;;9.10;7.20;;;;;;;8.19;81.68;98915.90;105982;1274;25253;-81
2022/09/29 03:29:42;;;;;;;8.00;7.20;;;;;;;8.15;81.40;98922.83;106015;1276;25253;-83
2022/09/29 03:32:09;;;;;;;7.80;7.10;;;;;;;8.09;81.14;98925.23;105938;1275;22583;-83
2022/09/29 03:34:36;;;;;;;8.00;7.30;;;;;;;8.07;81.17;98918.26;106184;1275;24270;-82
2022/09/29 03:37:03;;;;;;;7.70;7.10;;;;;;;8.03;80.97;98917.13;106182;1274;23971;-83
2022/09/29 03:39:30;;;;;;;8.50;7.60;;;;;;;7.93;80.85;98921.02;106102;1278;23273;-81
2022/09/29 03:41:57;;;;;;;7.70;7.00;;;;;;;7.90;80.99;98910.59;106238;1274;22687;-84
2022/09/29 03:44:24;;;;;;;9.40;6.90;;;;;;;7.87;81.04;98910.64;106027;1278;25934;-83
2022/09/29 03:46:51;;;;;;;8.90;7.60;;;;;;;7.83;81.12;98915.64;105956;1281;22630;-85
2022/09/29 03:49:18;;;;;;;8.20;7.40;;;;;;;7.81;81.22;98918.85;105242;1281;196217;-85
2022/09/29 03:51:45;;;;;;;7.90;7.10;;;;;;;7.80;81.06;98916.91;105662;1281;22661;-85
2022/09/29 03:54:12;;;;;;;8.10;7.10;;;;;;;7.79;81.10;98923.61;106288;1281;22498;-84
2022/09/29 03:56:39;;;;;;;6.90;6.30;;;;;;;7.79;81.14;98929.73;106482;1281;24767;-84
2022/09/29 03:59:08;;;;;;;7.90;7.20;;;;;;;7.84;81.18;98934.89;105111;1287;22558;-81
2022/09/29 04:01:36;;;;;;;8.50;7.80;;;;;;;7.89;81.14;98937.08;105135;1285;23619;-84
2022/09/29 04:04:07;;;;;;;8.50;7.60;;;;;;;7.89;81.04;98935.49;105324;1285;24272;-81
2022/09/29 04:06:35;;;;;;;8.00;7.30;;;;;;;7.84;80.83;98932.79;105849;1281;24668;-82
2022/09/29 04:09:02;;;;;;;8.40;7.60;;;;;;;7.83;81.08;98923.34;105478;1281;22766;-77
2022/09/29 04:11:29;;;;;;;8.60;7.80;;;;;;;7.82;81.02;98921.60;105486;1281;23970;-81
2022/09/29 04:13:56;;;;;;;9.70;8.80;;;;;;;7.79;81.15;98922.38;105558;1281;26485;-82
2022/09/29 04:16:23;;;;;;;8.30;7.60;;;;;;;7.81;81.31;98927.59;106496;1278;22526;-81
2022/09/29 04:18:50;;;;;;;9.00;7.00;;;;;;;7.83;81.22;98925.45;106812;1275;22688;-83
2022/09/29 04:21:17;;;;;;;9.00;8.10;;;;;;;7.83;81.14;98926.34;106248;1275;26628;-83
2022/09/29 04:23:45;;;;;;;7.90;7.20;;;;;;;7.83;81.14;98931.76;106293;1274;22727;-83
2022/09/29 04:26:12;;;;;;;9.10;8.10;;;;;;;7.81;81.15;98930.75;106268;1274;25290;-81
2022/09/29 04:28:40;;;;;;;9.40;8.60;;;;;;;7.79;81.14;98935.69;106088;1276;25283;-82
2022/09/29 04:31:07;;;;;;;8.70;8.00;;;;;;;7.80;81.17;98934.98;106311;1275;24235;-82
2022/09/29 04:33:34;;;;;;;9.60;7.40;;;;;;;7.82;81.35;98939.50;106079;1274;23180;-83
2022/09/29 04:36:01;;;;;;;9.20;8.40;;;;;;;7.83;81.24;98940.69;106449;1275;22865;-81
2022/09/29 04:38:29;;;;;;;9.00;8.20;;;;;;;7.86;81.22;98941.34;106693;1275;24340;-83
2022/09/29 04:40:57;;;;;;;9.60;8.70;;;;;;;7.85;81.22;98949.23;105508;1284;22545;-83
2022/09/29 04:43:24;;;;;;;9.10;8.30;;;;;;;7.82;81.13;98948.43;105290;1284;25259;-84
2022/09/29 04:45:51;;;;;;;9.30;8.30;;;;;;;7.80;81.22;98951.61;105290;1287;22674;-84
2022/09/29 04:48:18;;;;;;;9.90;8.90;;;;;;;7.79;81.32;98951.11;105183;1287;25136;-84
2022/09/29 04:50:45;;;;;;;10.30;9.50;;;;;;;7.83;81.40;98954.20;105037;1285;25275;-85
2022/09/29 04:53:14;;;;;;;10.50;9.50;;;;;;;7.85;81.49;98959.94;105242;1287;22637;-84
2022/09/29 04:55:41;;;;;;;10.50;9.60;;;;;;;7.83;81.53;98955.94;105011;1287;22737;-87
2022/09/29 04:58:07;;;;;;;10.40;9.50;;;;;;;7.89;81.73;98963.70;104798;1285;22550;-82
2022/09/29 05:00:34;;;;;;;9.70;8.70;;;;;;;7.92;81.63;98962.94;104981;1284;25424;-85
2022/09/29 05:03:02;;;;;;;9.60;8.60;;;;;;;7.92;81.34;98958.21;104882;1284;22555;-81
2022/09/29 05:05:29;;;;;;;10.60;9.70;;;;;;;7.93;81.65;98960.81;105482;1281;26717;-80
2022/09/29 05:07:58;;;;;;;10.10;9.20;;;;;;;7.97;81.85;98961.27;105519;1281;26737;-80
2022/09/29 05:10:25;;;;;;;11.50;10.40;;;;;;;7.98;81.56;98960.55;105326;1281;25257;-82
2022/09/29 05:12:52;;;;;;;11.00;9.50;;;;;;;7.99;81.66;98957.54;105346;1281;24245;-81
2022/09/29 05:15:19;;;;;;;10.40;9.40;;;;;;;8.04;81.67;98961.64;105242;1281;22566;-83
2022/09/29 05:17:52;;;;;;;10.60;9.60;;;;;;;8.09;81.62;98964.33;105523;1276;25325;-78
2022/09/29 05:20:19;;;;;;;9.70;8.80;;;;;;;8.13;81.67;98971.97;105477;1281;24966;-82
2022/09/29 05:22:45;;;;;;;11.60;10.50;;;;;;;8.12;81.35;98980.94;106085;1281;25618;-81
2022/09/29 05:25:13;;;;;;;12.80;10.40;;;;;;;8.10;81.44;98975.20;105507;1279;24304;-86
2022/09/29 05:27:40;;;;;;;10.70;9.70;;;;;;;8.12;81.59;98984.27;105679;1278;22543;-82
2022/09/29 05:30:07;;;;;;;11.40;10.20;;;;;;;8.10;81.47;98982.73;105283;1284;23964;-82
2022/09/29 05:32:34;;;;;;;10.50;9.30;;;;;;;8.12;81.50;98985.14;105283;1284;24084;-81
2022/09/29 05:35:02;;;;;;;10.90;9.80;;;;;;;8.15;81.49;98985.09;106122;1284;25341;-82
2022/09/29 05:37:29;;;;;;;10.90;9.90;;;;;;;8.15;81.56;98991.55;104502;1291;25462;-80
2022/09/29 05:39:56;;;;;;;11.10;10.00;;;;;;;8.11;81.44;98995.67;105044;1289;25475;-81
2022/09/29 05:42:24;;;;;;;10.80;9.40;;;;;;;8.11;81.54;98994.98;104282;1294;22797;-80
2022/09/29 05:44:51;;;;;;;11.40;10.10;;;;;;;8.11;81.60;98999.54;104368;1294;25408;-83
2022/09/29 05:47:20;;;;;;;11.70;10.50;;;;;;;8.08;81.50;99000.29;104151;1294;24262;-83
2022/09/29 05:49:46;;;;;;;10.10;9.20;;;;;;;8.06;81.66;99005.25;104202;1291;24380;-82
2022/09/29 05:52:13;;;;;;;11.30;10.30;;;;;;;8.04;81.79;99004.77;104383;1290;22587;-86
2022/09/29 05:54:40;;;;;;;10.10;9.20;;;;;;;8.07;81.89;99004.34;104422;1291;22602;-83
2022/09/29 05:57:07;;;;;;;10.60;9.70;;;;;;;8.11;82.06;99004.98;104760;1290;25289;-79
2022/09/29 05:59:34;;;;;;;10.40;9.40;;;;;;;8.14;81.96;99002.11;105496;1281;22658;-82
2022/09/29 06:02:01;;;;;;;11.60;10.60;;;;;;;8.14;81.73;99011.23;105872;1274;22569;-83
2022/09/29 06:04:28;;;;;;;11.10;10.10;;;;;;;8.12;81.70;99011.97;105710;1281;22573;-78
2022/09/29 06:06:56;;;;;;;11.20;10.20;;;;;;;8.13;81.80;99018.25;105517;1281;22553;-85
2022/09/29 06:09:23;;;;;;;11.00;10.10;;;;;;;8.13;81.64;99025.98;105265;1284;26521;-83
2022/09/29 06:11:50;;;;;;;10.60;9.60;;;;;;;8.12;81.74;99025.10;105726;1281;25864;-83
2022/09/29 06:14:16;;;;;;;12.20;11.10;;;;;;;8.10;81.88;99022.55;105543;1281;22563;-81
2022/09/29 06:16:43;;;;;;;11.00;10.00;;;;;;;8.10;81.97;99019.20;105536;1281;23285;-84
2022/09/29 06:19:10;;;;;;;10.80;9.80;;;;;;;8.12;81.93;99019.33;105627;1281;25399;-80
2022/09/29 06:21:38;;;;;;;10.50;9.20;;;;;;;8.18;81.90;99023.59;105226;1283;23235;-82
2022/09/29 06:24:06;;;;;;;11.70;10.60;;;;;;;8.25;81.72;99032.05;106097;1274;25439;-82
2022/09/29 06:26:33;;;;;;;12.10;11.00;;;;;;;8.26;81.51;99041.48;105899;1277;22556;-80
2022/09/29 06:29:01;;;;;;;12.20;11.10;;;;;;;8.27;81.44;99043.91;105957;1274;25445;-81
2022/09/29 06:31:30;;;;;;;11.70;10.70;;;;;;;8.28;81.37;99044.95;105924;1275;22550;-80
2022/09/29 06:33:59;;;;;;;10.80;9.80;;;;;;;8.26;81.37;99044.11;105979;1274;25517;-83
2022/09/29 06:39:18;;;;;;;12.40;11.30;;;;;;;8.30;81.50;99044.38;105960;1276;22568;-77
2022/09/29 06:41:55;;;;;;;12.30;11.10;;;;;;;8.35;81.43;99042.70;106111;1274;23330;-84
2022/09/29 06:44:26;;;;;;;11.60;10.70;;;;;;;8.40;81.31;99044.88;105973;1275;26515;-83
2022/09/29 06:46:53;;;;;;;11.30;10.30;;;;;;;8.40;80.95;99045.73;106204;1274;25368;-84
2022/09/29 06:49:21;;;;;;;12.40;11.20;;;;;;;8.43;80.99;99045.87;105728;1276;22535;-83
2022/09/29 06:51:49;;;;;;;12.20;11.10;;;;;;;8.47;80.82;99043.66;105836;1275;25452;-84
2022/09/29 06:54:19;;;;;;;13.20;12.10;;;;;;;8.55;81.07;99047.20;105963;1275;25404;-82
2022/09/29 06:56:52;;;;;;;11.70;10.60;;;;;;;8.64;80.75;99052.63;106007;1274;24291;-82
2022/09/29 06:59:20;;;;;;;12.10;11.10;;;;;;;8.60;80.08;99057.09;106006;1274;24218;-82
2022/09/29 07:01:49;;;;;;;11.90;10.90;;;;;;;8.55;79.96;99068.27;106142;1274;23459;-82
2022/09/29 07:04:20;;;;;;;13.00;11.90;;;;;;;8.56;80.34;99074.56;106127;1274;22875;-83
2022/09/29 07:06:48;;;;;;;11.30;10.30;;;;;;;8.60;80.31;99074.31;106066;1274;23733;-81
2022/09/29 07:09:15;;;;;;;10.70;9.70;;;;;;;8.58;79.83;99075.73;105809;1276;22544;-83
2022/09/29 07:11:48;;;;;;;11.00;10.00;;;;;;;8.53;79.82;99076.87;105935;1274;23976;-83
2022/09/29 07:14:16;;;;;;;11.00;10.00;;;;;;;8.54;79.89;99083.54;105998;1275;22856;-83
2022/09/29 07:16:47;;;;;;;12.40;11.10;;;;;;;8.57;79.86;99082.98;106059;1274;24223;-83
2022/09/29 07:19:15;;;;;;;10.10;9.20;;;;;;;8.56;79.72;99083.52;105377;1281;24236;-83
2022/09/29 07:21:43;;;;;;;10.70;9.80;;;;;;;8.53;79.63;99083.54;105524;1281;22585;-84
2022/09/29 07:24:10;;;;;;;9.70;8.80;;;;;;;8.59;80.03;99091.52;105470;1282;25368;-81
2022/09/29 07:26:37;;;;;;;10.10;9.30;;;;;;;8.67;79.73;99092.40;105425;1282;22611;-81
2022/09/29 07:29:04;;;;;;;10.00;9.20;;;;;;;8.64;79.27;99093.68;105520;1281;24847;-82
2022/09/29 07:31:31;;;;;;;9.70;8.90;;;;;;;8.59;79.16;99094.34;105578;1282;24285;-82
2022/09/29 07:34:13;;;;;;;9.90;9.10;;;;;;;8.60;78.95;99104.66;104943;1287;24705;-85
2022/09/29 07:36:40;;;;;;;9.40;8.60;;;;;;;8.64;79.49;99103.52;105573;1285;22965;-83
2022/09/29 07:39:07;;;;;;;9.90;9.00;;;;;;;8.78;79.32;99103.74;105733;1283;22551;-81
2022/09/29 07:41:34;;;;;;;9.70;8.70;;;;;;;8.70;78.23;99105.13;105754;1281;24207;-82
2022/09/29 07:44:01;;;;;;;10.00;9.00;;;;;;;8.66;78.50;99109.08;106399;1281;26511;-82
2022/09/29 07:46:28;;;;;;;8.90;8.10;;;;;;;8.68;78.44;99110.64;106122;1281;22547;-83
2022/09/29 07:48:55;;;;;;;10.30;9.30;;;;;;;8.70;78.43;99113.57;105745;1282;22677;-83
2022/09/29 07:51:22;;;;;;;9.30;8.50;;;;;;;8.72;78.38;99116.86;105946;1281;22562;-82
2022/09/29 07:53:50;;;;;;;9.40;8.50;;;;;;;8.74;78.11;99123.14;105969;1274;24371;-87
2022/09/29 07:56:19;;;;;;;8.70;8.00;;;;;;;8.70;78.00;99117.77;106154;1274;23958;-82
2022/09/29 07:58:48;;;;;;;9.50;8.70;;;;;;;8.78;78.03;99123.92;106247;1275;25253;-81
2022/09/29 08:01:17;;;;;;;9.90;9.10;;;;;;;8.88;78.04;99128.44;106348;1274;25374;-82
2022/09/29 08:03:50;;;;;;;10.00;9.00;;;;;;;8.91;77.67;99132.05;106358;1274;26011;-84
2022/09/29 08:06:17;;;;;;;9.20;8.40;;;;;;;9.04;77.66;99130.02;106298;1274;25354;-82
2022/09/29 08:08:44;;;;;;;9.20;7.40;;;;;;;9.17;77.81;99128.48;105986;1279;25487;-82
2022/09/29 08:11:29;;;;;;;8.30;7.60;;;;;;;9.37;76.99;99134.15;105515;1285;22652;-84
2022/09/29 08:13:59;;;;;;;8.00;7.40;;;;;;;9.36;76.02;99136.83;105797;1285;24091;-83
2022/09/29 08:16:26;;;;;;;8.10;7.50;;;;;;;9.30;75.77;99137.13;105234;1286;25378;-81
2022/09/29 08:18:54;;;;;;;8.30;7.60;;;;;;;9.26;75.46;99137.23;104907;1293;22568;-83
2022/09/29 08:21:21;;;;;;;8.60;7.80;;;;;;;9.23;75.58;99142.59;106357;1294;22557;-83
2022/09/29 08:23:48;;;;;;;7.20;6.60;;;;;;;9.30;76.26;99143.14;106342;1293;22579;-82
2022/09/29 08:26:18;;;;;;;7.60;6.90;;;;;;;9.36;75.24;99151.74;105959;1288;23900;-81
2022/09/29 08:29:02;;;;;;;8.10;7.40;;;;;;;9.42;75.52;99145.83;106116;1287;22583;-82
2022/09/29 08:31:36;;;;;;;8.00;7.20;;;;;;;9.58;75.27;99148.77;106276;1293;22564;-84
2022/09/29 08:34:05;;;;;;;8.20;7.50;;;;;;;9.74;75.21;99153.29;106046;1293;22496;-80
2022/09/29 08:36:32;;;;;;;7.10;6.50;;;;;;;9.87;74.60;99161.05;105537;1293;22582;-80
2022/09/29 08:39:00;;;;;;;6.80;6.10;;;;;;;9.88;73.90;99163.48;105751;1292;25399;-82
2022/09/29 08:41:27;;;;;;;8.00;7.30;;;;;;;9.87;73.83;99164.04;105690;1292;22576;-82
2022/09/29 08:44:18;;;;;;;7.30;6.80;;;;;;;9.88;73.69;99165.42;105758;1292;22665;-86
2022/09/29 08:47:18;;;;;;;8.00;7.20;;;;;;;9.87;73.56;99167.03;105345;1290;24252;-83
2022/09/29 08:50:04;;;;;;;7.60;7.00;;;;;;;9.92;73.34;99166.73;105757;1282;25934;-84
2022/09/29 08:52:35;;;;;;;6.40;5.90;;;;;;;9.96;73.09;99169.64;105942;1283;22584;-83
2022/09/29 08:55:22;;;;;;;5.90;5.30;;;;;;;9.98;72.83;99172.56;105948;1278;22491;-83
2022/09/29 08:57:56;;;;;;;7.30;6.50;;;;;;;10.04;72.87;99178.91;106793;1277;22491;-81
2022/09/29 09:00:41;;;;;;;6.80;6.20;;;;;;;10.02;72.45;99178.23;106750;1277;22558;-81
2022/09/29 09:03:38;;;;;;;6.80;6.20;;;;;;;10.14;72.57;99175.48;107333;1277;22669;-82
2022/09/29 09:06:40;;;;;;;7.10;6.50;;;;;;;10.25;72.66;99181.34;108400;1281;22534;-81
2022/09/29 09:09:15;;;;;;;6.50;6.00;;;;;;;10.35;71.64;99183.70;108366;1281;22677;-82
2022/09/29 09:11:54;;;;;;;6.10;5.60;;;;;;;10.35;71.83;99185.48;108485;1281;22590;-83
2022/09/29 09:14:50;;;;;;;7.20;6.40;;;;;;;10.45;71.96;99186.98;106943;1287;22570;-82
2022/09/29 09:17:35;;;;;;;6.80;6.20;;;;;;;10.52;71.39;99187.52;107187;1287;22556;-82
2022/09/29 09:20:22;;;;;;;6.20;5.70;;;;;;;10.48;70.90;99185.84;107086;1286;22903;-83
2022/09/29 09:22:57;;;;;;;7.00;6.40;;;;;;;10.42;70.38;99188.63;106066;1293;22865;-82
2022/09/29 09:25:29;;;;;;;7.90;7.20;;;;;;;10.35;70.50;99196.36;106054;1287;26582;-81
2022/09/29 09:28:14;;;;;;;7.80;7.10;;;;;;;10.33;70.58;99195.23;105774;1287;22590;-82
2022/09/29 09:30:50;;;;;;;6.70;6.10;;;;;;;10.36;70.39;99201.64;105169;1293;22584;-82
2022/09/29 09:33:43;;;;;;;6.50;6.00;;;;;;;10.36;70.31;99198.99;106095;1287;22666;-81
2022/09/29 09:36:24;;;;;;;6.10;5.60;;;;;;;10.30;69.99;99200.04;106147;1287;23987;-82
2022/09/29 09:39:13;;;;;;;7.30;6.70;;;;;;;10.33;70.31;99204.02;105265;1287;23572;-83
2022/09/29 09:41:44;;;;;;;7.80;7.20;;;;;;;10.34;70.46;99200.11;105612;1281;26653;-81
2022/09/29 09:44:32;;;;;;;7.20;6.60;;;;;;;10.36;70.47;99204.45;106054;1281;22709;-82
2022/09/29 09:47:09;;;;;;;7.40;6.80;;;;;;;10.34;70.64;99207.51;106107;1281;24295;-84
2022/09/29 09:49:42;;;;;;;6.90;6.40;;;;;;;10.37;70.85;99205.13;106129;1277;22711;-83
2022/09/29 09:52:37;;;;;;;7.20;6.60;;;;;;;10.38;70.40;99215.11;106350;1277;23835;-86
2022/09/29 09:55:09;;;;;;;6.90;6.40;;;;;;;10.37;70.36;99215.85;106350;1277;22797;-84
2022/09/29 09:58:02;;;;;;;7.80;7.10;;;;;;;10.32;70.29;99226.90;106218;1278;22569;-82
2022/09/29 10:00:56;;;;;;;8.80;7.30;;;;;;;10.27;70.30;99229.13;106206;1277;25655;-85
2022/09/29 10:03:26;;;;;;;7.60;6.90;;;;;;;10.26;70.52;99229.70;106461;1277;22582;-82
2022/09/29 10:05:54;;;;;;;8.10;7.40;;;;;;;10.33;70.62;99233.23;106610;1277;25331;-83
2022/09/29 10:08:28;;;;;;;6.90;6.30;;;;;;;10.35;70.43;99239.11;106522;1275;22610;-83
2022/09/29 10:10:59;;;;;;;7.30;6.70;;;;;;;10.34;70.25;99241.83;106351;1278;22681;-82
2022/09/29 10:13:30;;;;;;;6.90;6.30;;;;;;;10.32;70.31;99248.04;106113;1278;22549;-80
2022/09/29 10:16:09;;;;;;;7.30;6.70;;;;;;;10.27;70.47;99248.85;106363;1276;24362;-82
2022/09/29 10:18:42;;;;;;;8.30;7.50;;;;;;;10.33;70.84;99248.88;105954;1277;22569;-84
2022/09/29 10:21:35;;;;;;;7.40;6.90;;;;;;;10.37;70.77;99250.52;106104;1278;22557;-83
2022/09/29 10:24:06;;;;;;;8.20;7.60;;;;;;;10.33;70.24;99255.58;106035;1277;23946;-84
2022/09/29 10:26:42;;;;;;;8.50;7.80;;;;;;;10.25;70.50;99257.52;105921;1278;22546;-85
2022/09/29 10:29:31;;;;;;;8.60;7.80;;;;;;;10.21;70.20;99257.81;106229;1278;22682;-83
2022/09/29 10:32:08;;;;;;;8.90;8.10;;;;;;;10.18;70.39;99259.29;106185;1278;24085;-81
2022/09/29 10:34:39;;;;;;;12.80;11.50;;;;;;;10.20;70.49;99266.27;106577;1275;22552;-82
2022/09/29 10:37:35;;;;;;;8.70;7.90;;;;;;;10.20;70.43;99267.52;106348;1275;24255;-82
2022/09/29 10:40:11;;;;;;;8.30;7.60;;;;;;;10.25;70.68;99269.14;106100;1275;22753;-83
2022/09/29 10:42:39;;;;;;;;;;;;;;;10.25;70.54;99270.56;106113;1275;22770;-82
2022/09/29 10:45:06;;;;;;;10.60;9.70;;;;;;;10.24;70.47;99279.02;106173;1275;24394;-83
2022/09/29 10:47:33;;;;;;;9.10;8.40;;;;;;;10.20;70.34;99281.21;106143;1275;24006;-82
2022/09/29 10:50:29;;;;;;;10.40;9.40;;;;;;;10.13;70.34;99275.78;105855;1276;24080;-82
2022/09/29 10:53:22;;;;;;;9.70;8.50;;;;;;;10.05;70.61;99273.52;106120;1275;24930;-82
2022/09/29 10:55:53;;;;;;;9.30;8.50;;;;;;;10.15;71.02;99272.05;105953;1275;23103;-81
2022/09/29 10:58:30;;;;;;;9.70;8.70;;;;;;;10.24;70.65;99275.14;105969;1275;24549;-83
2022/09/29 11:01:18;;;;;;;10.30;9.40;;;;;;;10.28;70.50;99279.27;105998;1275;24338;-83
2022/09/29 11:03:53;;;;;;;9.80;8.90;;;;;;;10.33;70.18;99283.53;105853;1275;22617;-84
2022/09/29 11:06:30;;;;;;;10.70;9.70;;;;;;;10.35;70.18;99285.42;105835;1275;22647;-80
2022/09/29 11:09:24;;;;;;;10.60;9.70;;;;;;;10.34;69.90;99286.15;105665;1278;23171;-80
2022/09/29 11:11:54;;;;;;;11.20;10.10;;;;;;;10.32;69.94;99287.61;105801;1275;22559;-82
2022/09/29 11:14:35;;;;;;;11.20;10.20;;;;;;;10.31;70.05;99295.03;105876;1275;24447;-79
2022/09/29 11:17:24;;;;;;;10.00;9.00;;;;;;;10.34;70.09;99295.31;105967;1275;22546;-82
2022/09/29 11:19:54;;;;;;;10.70;8.90;;;;;;;10.42;70.19;99300.56;105952;1275;25601;-82
2022/09/29 11:22:48;;;;;;;10.30;9.40;;;;;;;10.40;69.84;99302.34;106010;1276;22727;-83
2022/09/29 11:25:19;;;;;;;10.70;9.90;;;;;;;10.43;69.86;99307.41;105937;1276;24138;-82
2022/09/29 11:28:10;;;;;;;10.00;9.30;;;;;;;10.47;69.88;99308.91;105618;1281;22672;-82
2022/09/29 11:30:54;;;;;;;10.90;10.00;;;;;;;10.50;69.80;99304.42;105612;1281;22648;-86
2022/09/29 11:33:28;;;;;;;11.00;10.00;;;;;;;10.59;69.79;99303.50;105363;1281;24276;-82
2022/09/29 11:36:10;;;;;;;9.30;8.40;;;;;;;10.60;69.19;99306.10;105341;1284;25376;-81
2022/09/29 11:38:49;;;;;;;9.40;8.70;;;;;;;10.62;69.04;99306.58;104794;1287;23513;-83
2022/09/29 11:41:31;;;;;;;9.10;8.40;;;;;;;10.73;69.02;99306.29;104902;1287;24717;-82
2022/09/29 11:44:28;;;;;;;9.90;9.10;;;;;;;10.79;68.50;99304.20;104984;1287;22551;-79
2022/09/29 11:47:39;;;;;;;10.70;9.90;;;;;;;10.82;68.46;99305.87;105304;1281;22579;-85
2022/09/29 11:50:12;;;;;;;11.10;10.30;;;;;;;10.73;68.23;99300.65;105470;1281;22860;-83
2022/09/29 11:53:17;;;;;;;10.10;9.20;;;;;;;10.71;68.22;99304.77;105390;1281;25432;-82
2022/09/29 11:56:16;;;;;;;10.50;9.50;;;;;;;10.67;68.22;99308.21;105350;1281;24341;-84
2022/09/29 11:59:04;;;;;;;9.00;8.30;;;;;;;10.61;67.70;99308.36;105582;1280;22701;-80
2022/09/29 12:01:58;;;;;;;9.40;8.60;;;;;;;10.51;67.95;99305.29;105854;1281;25562;-85
2022/09/29 12:04:31;;;;;;;9.90;9.00;;;;;;;10.46;68.00;99306.10;105768;1278;23932;-84